Kenilworth, Illinois
Current Conditions -  °F | °C
As of 11:52 PM on Saturday 25 Oct 2014 (Local Time) from KPWK Reporting Station
Clear Clear  
Wind Chill: 55°   Ceiling: Unl
Heat Index: 55°   Visibility: 10mi
Dew Point: 27°   Wind: 10mph
Humidity: 34%   Direction: 310°NW
Pressure: 29.99"   Gusts: NA
Location:  42.09°N, 87.72°W
Report Text: KPWK 260452Z AUTO 31009KT 10SM CLR 13/M03 A2999 RMK AO2 SLP153 T01281028
Loading
Personal Weather Stations






























Interactive Weather Map
Tropical Storm Tracking
New forecast layout! Learn more

10-Day Weather Forecast

Advertisements
Track Severe Weather on mobile